Time;durP1;ratioP1;P1;durP2;ratioP2;P2;SDS_P1;SDS_P2;PMS_P1;PMS_P2;Temp;Humidity;BMP_temperature;BMP_pressure;BME280_temperature;BME280_humidity;BME280_pressure;Samples;Min_cycle;Max_cycle;Signal;HPM_P1;HPM_P2
2021/07/31 00:01:55;;;;;;;42.95;18.92;;;17.40;99.90;;;;;;8298658;28;20657;-65
2021/07/31 00:05:56;;;;;;;43.42;19.83;;;17.30;99.90;;;;;;8298707;28;20042;-65
2021/07/31 00:09:56;;;;;;;43.10;19.75;;;17.30;99.90;;;;;;8298646;28;20038;-65
2021/07/31 00:13:57;;;;;;;42.08;19.13;;;17.30;99.90;;;;;;8298182;28;20030;-65
2021/07/31 00:17:57;;;;;;;41.60;19.02;;;17.30;99.90;;;;;;8298352;28;20037;-65
2021/07/31 00:21:58;;;;;;;40.28;18.98;;;17.40;99.90;;;;;;8297663;28;20034;-65
2021/07/31 00:25:59;;;;;;;41.50;19.30;;;17.40;99.90;;;;;;8280359;28;20022;-65
2021/07/31 00:29:59;;;;;;;41.28;19.33;;;17.40;99.90;;;;;;8280348;28;20034;-65
2021/07/31 00:34:00;;;;;;;39.50;18.80;;;17.40;99.90;;;;;;8280094;28;20080;-65
2021/07/31 00:38:00;;;;;;;39.10;18.73;;;17.50;99.90;;;;;;8297615;28;20042;-65
2021/07/31 00:42:01;;;;;;;38.92;18.60;;;17.50;99.90;;;;;;8297258;28;20489;-65
2021/07/31 00:46:02;;;;;;;38.67;18.45;;;17.40;99.90;;;;;;8297667;28;20091;-65
2021/07/31 00:50:03;;;;;;;39.20;18.77;;;17.40;99.90;;;;;;8296224;28;20033;-65
2021/07/31 00:54:04;;;;;;;39.25;18.70;;;17.40;99.90;;;;;;8297566;28;20038;-65
2021/07/31 00:58:05;;;;;;;40.55;19.10;;;17.50;99.90;;;;;;8297075;28;20504;-65
2021/07/31 01:02:06;;;;;;;38.83;18.70;;;17.50;99.90;;;;;;8279129;28;20402;-65
2021/07/31 01:06:07;;;;;;;39.28;18.90;;;17.50;99.90;;;;;;8297094;28;20037;-65
2021/07/31 01:10:08;;;;;;;39.83;18.73;;;17.50;99.90;;;;;;8296980;28;20064;-65
2021/07/31 01:14:09;;;;;;;37.72;18.55;;;17.50;99.90;;;;;;8296499;28;20037;-65
2021/07/31 01:18:09;;;;;;;38.20;18.33;;;17.60;99.90;;;;;;8279017;28;20026;-65
2021/07/31 01:22:10;;;;;;;41.50;19.00;;;17.60;99.90;;;;;;8296024;28;20503;-65
2021/07/31 01:26:10;;;;;;;41.33;18.70;;;17.60;99.90;;;;;;8296266;28;20096;-65
2021/07/31 01:30:11;;;;;;;40.40;18.90;;;17.60;99.90;;;;;;8296058;28;20030;-65
2021/07/31 01:34:12;;;;;;;40.63;18.73;;;17.60;99.90;;;;;;8296003;28;20026;-65
2021/07/31 01:38:12;;;;;;;40.58;18.92;;;17.60;99.90;;;;;;8278266;28;20057;-65
2021/07/31 01:42:13;;;;;;;40.72;18.98;;;17.70;99.90;;;;;;8295472;28;20022;-65
2021/07/31 01:46:14;;;;;;;41.00;18.80;;;17.60;99.90;;;;;;8295653;28;20030;-65
2021/07/31 01:50:15;;;;;;;42.42;20.13;;;17.60;99.90;;;;;;8295280;28;20515;-65
2021/07/31 01:54:16;;;;;;;40.50;19.08;;;17.60;99.90;;;;;;8295415;28;20129;-65
2021/07/31 01:58:16;;;;;;;39.97;18.88;;;17.60;99.90;;;;;;8294961;28;20033;-65
2021/07/31 02:02:17;;;;;;;40.53;19.05;;;17.60;99.90;;;;;;8294500;28;20026;-65
2021/07/31 02:06:17;;;;;;;40.53;19.02;;;17.60;99.90;;;;;;8295059;28;20053;-65
2021/07/31 02:10:18;;;;;;;40.67;19.25;;;17.70;99.90;;;;;;8294549;28;20029;-65
2021/07/31 02:14:18;;;;;;;40.05;18.70;;;17.60;99.90;;;;;;8294719;28;20508;-65
2021/07/31 02:18:19;;;;;;;40.53;18.85;;;17.60;99.90;;;;;;8294575;28;20030;-65
2021/07/31 02:22:20;;;;;;;41.38;19.23;;;17.80;99.90;;;;;;8294511;28;20117;-65
2021/07/31 02:26:21;;;;;;;40.70;19.10;;;17.70;99.90;;;;;;8294439;28;20029;-65
2021/07/31 02:30:22;;;;;;;40.45;19.02;;;17.70;99.90;;;;;;8294110;28;20041;-65
2021/07/31 02:34:22;;;;;;;40.10;18.80;;;17.70;99.90;;;;;;8294178;28;20033;-65
2021/07/31 02:38:23;;;;;;;39.85;18.83;;;17.70;99.90;;;;;;8293984;28;20021;-65
2021/07/31 02:42:23;;;;;;;40.17;18.75;;;17.70;99.90;;;;;;8293603;28;20021;-65
2021/07/31 02:46:24;;;;;;;40.25;18.90;;;17.60;99.90;;;;;;8293810;28;20034;-65
2021/07/31 02:50:25;;;;;;;39.92;19.15;;;17.60;99.90;;;;;;8293249;28;20022;-65
2021/07/31 02:54:27;;;;;;;41.10;19.20;;;17.70;99.90;;;;;;8292934;28;20514;-65
2021/07/31 02:58:27;;;;;;;40.50;18.92;;;17.70;99.90;;;;;;8293285;28;20034;-65
2021/07/31 03:02:28;;;;;;;40.95;18.85;;;17.70;99.90;;;;;;8293233;28;20029;-65
2021/07/31 03:06:28;;;;;;;41.35;18.90;;;17.80;99.90;;;;;;8293584;28;20042;-65
2021/07/31 03:10:29;;;;;;;41.53;19.75;;;17.80;99.90;;;;;;8293073;28;20049;-65
2021/07/31 03:14:30;;;;;;;42.28;19.55;;;17.80;99.90;;;;;;8292663;28;20030;-65
2021/07/31 03:18:30;;;;;;;40.92;19.10;;;17.70;99.90;;;;;;8275896;28;20032;-66
2021/07/31 03:22:31;;;;;;;41.53;19.50;;;17.70;99.90;;;;;;8292975;28;20037;-65
2021/07/31 03:26:31;;;;;;;40.83;19.00;;;17.60;99.90;;;;;;8293156;28;20029;-65
2021/07/31 03:30:32;;;;;;;41.67;18.92;;;17.70;99.90;;;;;;8293281;28;20400;-66
2021/07/31 03:34:33;;;;;;;41.08;18.98;;;17.60;99.90;;;;;;8293277;28;20501;-65
2021/07/31 03:38:33;;;;;;;40.70;18.98;;;17.50;99.90;;;;;;8292752;28;20504;-65
2021/07/31 03:42:34;;;;;;;41.17;19.17;;;17.30;99.90;;;;;;8292555;28;20088;-65
2021/07/31 03:46:34;;;;;;;41.78;19.00;;;17.20;99.90;;;;;;8292785;28;20550;-65
2021/07/31 03:50:40;;;;;;;42.15;19.42;;;17.20;99.90;;;;;;8292427;28;20026;-65
2021/07/31 03:54:40;;;;;;;42.72;19.67;;;17.50;99.90;;;;;;8292608;28;20017;-65
2021/07/31 03:58:41;;;;;;;42.40;19.50;;;17.50;99.90;;;;;;8292346;28;20030;-65
2021/07/31 04:02:42;;;;;;;42.90;19.55;;;17.60;99.90;;;;;;8292141;28;20022;-65
2021/07/31 04:06:42;;;;;;;41.92;19.35;;;17.50;99.90;;;;;;8292264;28;20044;-65
2021/07/31 04:10:43;;;;;;;41.88;19.30;;;17.50;99.90;;;;;;8291977;28;20381;-65
2021/07/31 04:14:44;;;;;;;41.33;19.00;;;17.60;99.90;;;;;;8292343;28;20638;-64
2021/07/31 04:18:44;;;;;;;42.85;20.40;;;17.50;99.90;;;;;;8291573;28;20279;-65
2021/07/31 04:22:45;;;;;;;42.10;19.38;;;17.30;99.90;;;;;;8274473;28;20030;-65
2021/07/31 04:26:46;;;;;;;40.88;19.38;;;17.20;99.90;;;;;;8296501;28;20038;-65
2021/07/31 04:30:46;;;;;;;41.88;19.38;;;17.30;99.90;;;;;;8279846;28;20065;-65
2021/07/31 04:34:47;;;;;;;42.75;19.58;;;17.30;99.90;;;;;;8296982;28;20021;-65
2021/07/31 04:38:47;;;;;;;42.70;19.25;;;17.20;99.90;;;;;;8298060;28;20029;-65
2021/07/31 04:42:48;;;;;;;42.78;19.38;;;17.10;99.90;;;;;;8297624;28;20030;-65
2021/07/31 04:46:49;;;;;;;41.95;19.02;;;17.10;99.90;;;;;;8297478;28;20026;-65
2021/07/31 04:51:00;;;;;;;42.35;19.17;;;17.30;99.90;;;;;;8297324;28;20029;-65
2021/07/31 04:55:05;;;;;;;42.50;19.52;;;17.30;99.90;;;;;;8297307;28;20038;-65
2021/07/31 04:59:05;;;;;;;42.10;19.02;;;17.50;99.90;;;;;;8297001;28;20033;-65
2021/07/31 05:03:06;;;;;;;40.30;18.88;;;17.60;99.90;;;;;;8296682;28;20029;-65
2021/07/31 05:07:08;;;;;;;41.03;18.85;;;17.80;99.90;;;;;;8296813;28;20033;-65
2021/07/31 05:11:08;;;;;;;41.22;18.90;;;17.90;99.90;;;;;;8296429;28;20042;-65
2021/07/31 05:15:09;;;;;;;46.25;19.85;;;18.00;99.90;;;;;;8296765;28;20030;-65
2021/07/31 05:19:10;;;;;;;43.10;19.25;;;18.10;99.90;;;;;;8296632;28;20501;-65
2021/07/31 05:23:12;;;;;;;43.83;19.63;;;18.00;99.90;;;;;;8295916;28;20030;-65
2021/07/31 05:27:13;;;;;;;43.95;19.65;;;18.00;99.90;;;;;;8296152;28;20068;-65
2021/07/31 05:31:23;;;;;;;43.20;19.42;;;18.20;99.90;;;;;;8296037;28;20037;-64
2021/07/31 05:35:24;;;;;;;46.30;20.33;;;18.30;99.90;;;;;;8295560;28;20034;-65
2021/07/31 05:39:24;;;;;;;46.58;19.90;;;18.10;99.90;;;;;;8295634;28;20550;-65
2021/07/31 05:43:25;;;;;;;46.72;19.85;;;18.30;99.90;;;;;;8295533;28;20077;-64
2021/07/31 05:47:27;;;;;;;48.05;20.05;;;18.50;99.90;;;;;;8295627;28;20041;-65
2021/07/31 05:51:28;;;;;;;69.95;23.25;;;18.70;99.90;;;;;;8295362;28;20033;-65
2021/07/31 05:55:28;;;;;;;75.47;23.77;;;19.00;99.90;;;;;;8295297;28;20038;-65
2021/07/31 05:59:29;;;;;;;64.95;22.67;;;19.40;99.90;;;;;;8289391;28;20116;-64
2021/07/31 06:03:29;;;;;;;65.32;22.67;;;19.60;99.90;;;;;;8258846;28;20018;-65
2021/07/31 06:07:30;;;;;;;60.63;22.40;;;19.40;99.90;;;;;;8275970;28;20030;-65
2021/07/31 06:11:30;;;;;;;62.13;22.70;;;19.10;99.90;;;;;;8276588;28;20093;-65
2021/07/31 06:15:31;;;;;;;59.55;22.30;;;19.00;99.90;;;;;;8272912;28;20030;-65
2021/07/31 06:19:32;;;;;;;59.33;21.40;;;19.30;99.90;;;;;;8276374;28;20030;-65
2021/07/31 06:23:33;;;;;;;72.55;23.77;;;19.90;99.90;;;;;;8272585;28;20030;-65
2021/07/31 06:27:33;;;;;;;68.78;22.58;;;20.50;99.90;;;;;;8272756;28;20088;-66
2021/07/31 06:31:34;;;;;;;66.25;22.48;;;20.20;99.90;;;;;;8275802;28;20057;-65
2021/07/31 06:35:36;;;;;;;70.97;23.05;;;20.00;99.90;;;;;;8276213;28;20038;-65
2021/07/31 06:39:36;;;;;;;55.47;21.25;;;19.90;99.90;;;;;;8257381;28;20034;-65
2021/07/31 06:43:37;;;;;;;60.10;22.27;;;19.50;99.90;;;;;;8288371;28;20038;-65
2021/07/31 06:47:37;;;;;;;55.00;20.88;;;19.20;99.90;;;;;;8293914;28;20050;-65
2021/07/31 06:51:39;;;;;;;57.63;21.25;;;19.00;99.90;;;;;;8293499;28;20030;-65
2021/07/31 06:55:39;;;;;;;57.88;21.50;;;19.10;99.90;;;;;;8293734;28;20026;-65
2021/07/31 06:59:40;;;;;;;58.13;21.88;;;19.40;99.90;;;;;;8293821;28;20045;-65
2021/07/31 07:03:42;;;;;;;57.72;21.48;;;19.40;99.90;;;;;;8293377;28;20416;-65
2021/07/31 07:07:42;;;;;;;58.72;21.90;;;19.40;99.90;;;;;;8293780;28;20030;-65
2021/07/31 07:11:43;;;;;;;57.80;21.80;;;19.70;99.90;;;;;;8286698;28;20061;-65
2021/07/31 07:15:44;;;;;;;58.20;21.88;;;19.40;99.90;;;;;;8274322;28;20076;-65
2021/07/31 07:19:44;;;;;;;57.38;21.50;;;19.70;99.90;;;;;;8288311;28;20109;-65
2021/07/31 07:23:45;;;;;;;54.55;21.10;;;20.50;99.90;;;;;;8271046;28;20042;-65
2021/07/31 07:27:46;;;;;;;57.15;21.38;;;20.80;99.90;;;;;;8273266;28;20470;-65
2021/07/31 07:31:46;;;;;;;62.15;22.40;;;21.00;99.90;;;;;;8278413;28;20034;-65
2021/07/31 07:35:47;;;;;;;67.97;22.65;;;21.40;99.90;;;;;;8269837;28;20038;-65
2021/07/31 07:39:47;;;;;;;63.65;21.90;;;21.70;99.90;;;;;;8262806;28;20046;-65
2021/07/31 07:43:48;;;;;;;62.58;22.63;;;21.60;99.90;;;;;;8260422;28;20078;-65
2021/07/31 07:47:49;;;;;;;63.03;22.48;;;21.40;99.90;;;;;;8260612;28;20029;-65
2021/07/31 07:51:49;;;;;;;62.80;22.40;;;21.70;99.90;;;;;;8258253;28;20084;-65
2021/07/31 07:55:50;;;;;;;60.92;21.75;;;21.80;99.90;;;;;;8280950;28;20405;-65
2021/07/31 07:59:50;;;;;;;61.38;22.45;;;21.60;99.90;;;;;;8247326;28;20026;-65
2021/07/31 08:03:51;;;;;;;60.90;22.23;;;21.70;99.90;;;;;;8262847;28;20041;-65
2021/07/31 08:07:51;;;;;;;61.42;22.00;;;21.50;99.90;;;;;;8265977;28;20034;-65
2021/07/31 08:11:52;;;;;;;62.10;22.08;;;21.70;99.90;;;;;;8265812;28;20034;-65
2021/07/31 08:15:52;;;;;;;63.70;22.52;;;21.80;99.90;;;;;;8265914;28;20041;-65
2021/07/31 08:19:53;;;;;;;65.70;22.75;;;21.80;99.90;;;;;;8266122;28;20077;-65
2021/07/31 08:23:54;;;;;;;66.25;22.48;;;21.90;99.90;;;;;;8297748;28;20034;-65
2021/07/31 08:27:55;;;;;;;68.10;22.65;;;22.10;99.90;;;;;;8298104;28;20485;-65
2021/07/31 08:31:55;;;;;;;71.38;22.98;;;22.10;99.90;;;;;;8297746;28;20112;-65
2021/07/31 08:35:59;;;;;;;59.05;21.85;;;22.70;99.90;;;;;;8298085;28;20091;-65
2021/07/31 08:40:00;;;;;;;63.40;22.35;;;22.50;99.90;;;;;;8280382;28;20026;-65
2021/07/31 08:44:03;;;;;;;64.43;22.67;;;22.60;99.90;;;;;;8297469;28;20109;-65
2021/07/31 08:48:04;;;;;;;66.22;22.58;;;22.70;99.90;;;;;;8297598;28;20061;-65
2021/07/31 08:52:07;;;;;;;68.75;22.77;;;22.80;99.90;;;;;;8296964;28;20049;-65
2021/07/31 08:56:07;;;;;;;72.55;23.65;;;23.20;99.90;;;;;;8279791;28;20030;-65
2021/07/31 09:00:08;;;;;;;72.65;23.30;;;23.90;99.90;;;;;;8279736;28;20496;-65
2021/07/31 09:04:15;;;;;;;72.78;23.33;;;24.00;99.90;;;;;;8296904;28;20397;-65
2021/07/31 09:08:16;;;;;;;67.30;22.52;;;23.50;99.90;;;;;;8280093;28;20041;-65
2021/07/31 09:12:16;;;;;;;64.68;22.45;;;23.30;99.90;;;;;;8276606;28;20444;-65
2021/07/31 09:16:17;;;;;;;66.30;22.88;;;23.20;99.90;;;;;;8273458;28;20042;-65
2021/07/31 09:20:17;;;;;;;62.88;23.00;;;23.60;99.90;;;;;;8280889;28;20037;-65
2021/07/31 09:24:24;;;;;;;60.60;21.98;;;23.20;99.90;;;;;;8269487;28;20034;-65
2021/07/31 09:28:24;;;;;;;61.78;22.17;;;23.20;99.90;;;;;;8263760;28;20523;-65
2021/07/31 09:32:39;;;;;;;63.65;22.30;;;23.30;99.90;;;;;;8268550;28;20034;-65
2021/07/31 09:36:42;;;;;;;57.05;21.48;;;23.20;99.90;;;;;;8266428;28;20034;-65
2021/07/31 09:40:42;;;;;;;59.95;21.98;;;22.60;99.90;;;;;;8278418;28;20038;-65
2021/07/31 09:44:46;;;;;;;61.15;22.20;;;22.60;99.90;;;;;;8252489;28;20160;-65
2021/07/31 09:49:00;;;;;;;62.85;22.88;;;23.10;99.90;;;;;;8265691;28;20075;-65
2021/07/31 09:53:15;;;;;;;62.90;22.23;;;23.80;99.90;;;;;;8276073;28;20497;-65
2021/07/31 09:57:16;;;;;;;64.72;22.75;;;24.30;99.90;;;;;;8276746;28;20034;-65
2021/07/31 10:01:16;;;;;;;64.63;22.45;;;24.40;99.90;;;;;;8281288;28;20492;-65
2021/07/31 10:05:20;;;;;;;66.47;23.13;;;24.10;99.90;;;;;;8289192;28;20100;-65
2021/07/31 10:09:21;;;;;;;68.57;22.98;;;24.40;99.90;;;;;;8267475;28;20065;-65
2021/07/31 10:13:23;;;;;;;69.00;23.08;;;24.60;99.90;;;;;;8264625;28;20680;-65
2021/07/31 10:17:28;;;;;;;69.30;23.05;;;24.60;99.90;;;;;;8264927;28;20034;-65
2021/07/31 10:21:33;;;;;;;70.20;23.17;;;24.20;99.90;;;;;;8252408;28;20033;-65
2021/07/31 10:25:33;;;;;;;71.22;23.45;;;24.00;99.90;;;;;;8262210;28;20030;-65
2021/07/31 10:29:34;;;;;;;71.43;23.38;;;24.40;99.90;;;;;;8264946;28;20090;-65
2021/07/31 10:33:45;;;;;;;70.32;23.20;;;24.60;99.90;;;;;;8273275;28;20088;-65
2021/07/31 10:37:46;;;;;;;69.70;23.48;;;24.20;99.90;;;;;;8265711;28;20164;-65
2021/07/31 10:41:57;;;;;;;67.05;22.77;;;23.60;99.90;;;;;;8254685;28;20100;-65
2021/07/31 10:46:18;;;;;;;70.10;23.40;;;23.50;99.90;;;;;;8293452;28;20030;-65
2021/07/31 10:50:22;;;;;;;74.97;25.00;;;24.60;99.90;;;;;;8270736;28;20083;-65
2021/07/31 10:55:01;;;;;;;71.47;23.13;;;25.20;99.90;;;;;;8283971;28;20022;-65
2021/07/31 10:59:15;;;;;;;73.18;23.35;;;24.70;99.90;;;;;;8277150;28;20042;-65
2021/07/31 11:03:23;;;;;;;75.55;24.02;;;25.30;99.90;;;;;;8292183;28;20029;-65
2021/07/31 11:07:27;;;;;;;76.20;23.88;;;25.50;99.90;;;;;;8292623;28;20080;-65
2021/07/31 11:11:28;;;;;;;78.63;24.50;;;25.70;99.90;;;;;;8293342;28;20033;-65
2021/07/31 11:15:29;;;;;;;77.93;23.83;;;26.50;99.90;;;;;;8275365;28;20026;-65
2021/07/31 11:19:33;;;;;;;76.35;23.65;;;26.70;99.80;;;;;;8293457;28;20037;-65
2021/07/31 11:23:39;;;;;;;76.55;23.85;;;26.50;97.60;;;;;;8275598;28;20022;-65
2021/07/31 11:27:40;;;;;;;78.90;24.23;;;26.30;99.90;;;;;;8293184;28;20117;-65
2021/07/31 11:31:44;;;;;;;58.25;17.05;;;28.30;96.50;;;;;;8293157;28;20045;-65
2021/07/31 11:35:46;;;;;;;7.95;7.35;;;32.30;84.00;;;;;;8292289;28;20512;-65
2021/07/31 11:39:46;;;;;;;60.38;17.75;;;32.10;75.40;;;;;;8293014;28;20053;-65
2021/07/31 11:43:50;;;;;;;8.82;4.97;;;31.50;75.10;;;;;;8292594;28;20096;-65
2021/07/31 11:47:57;;;;;;;82.60;23.85;;;31.50;75.10;;;;;;8292738;28;20026;-65
2021/07/31 11:52:00;;;;;;;11.15;5.43;;;30.90;71.80;;;;;;8292280;28;20543;-65
2021/07/31 11:56:15;;;;;;;6.97;5.28;;;31.80;68.90;;;;;;8292613;28;20054;-65
2021/07/31 12:00:16;;;;;;;7.93;7.22;;;32.60;62.50;;;;;;8292828;28;20068;-65
2021/07/31 12:04:42;;;;;;;7.13;6.43;;;33.40;57.70;;;;;;8292465;28;20042;-65
2021/07/31 12:08:46;;;;;;;15.77;6.75;;;33.40;57.30;;;;;;8292608;28;20034;-65
2021/07/31 12:12:46;;;;;;;31.70;11.05;;;32.30;59.00;;;;;;8291630;28;20537;-65
2021/07/31 12:16:47;;;;;;;55.05;16.00;;;32.00;58.60;;;;;;8274914;28;20030;-65
2021/07/31 12:20:48;;;;;;;89.82;25.13;;;30.30;64.30;;;;;;8292196;28;20388;-65
2021/07/31 12:25:26;;;;;;;88.53;25.20;;;28.50;69.10;;;;;;8274640;28;20396;-65
2021/07/31 12:29:40;;;;;;;85.57;25.10;;;27.80;81.10;;;;;;8179582;28;20034;-65
2021/07/31 12:33:41;;;;;;;85.22;25.00;;;28.00;74.80;;;;;;8274487;28;20018;-65
2021/07/31 12:37:48;;;;;;;79.57;23.95;;;28.00;74.60;;;;;;8292085;28;20149;-65
2021/07/31 12:41:48;;;;;;;80.68;24.15;;;27.10;77.20;;;;;;8291730;28;20026;-65
2021/07/31 12:45:51;;;;;;;81.90;24.55;;;27.00;84.10;;;;;;8279204;28;20097;-65
2021/07/31 12:49:51;;;;;;;82.65;24.48;;;27.70;79.00;;;;;;8276595;28;20057;-65
2021/07/31 12:53:52;;;;;;;79.18;24.45;;;27.50;80.40;;;;;;8296699;28;20026;-65
2021/07/31 12:57:52;;;;;;;82.10;24.83;;;26.40;84.20;;;;;;8287790;28;20037;-65
2021/07/31 13:01:53;;;;;;;80.35;24.98;;;26.70;84.60;;;;;;8275961;28;20105;-65
2021/07/31 13:05:54;;;;;;;81.00;23.92;;;28.10;79.40;;;;;;8279958;28;20022;-65
2021/07/31 13:09:54;;;;;;;75.60;24.38;;;28.40;78.30;;;;;;8292114;28;20436;-65
2021/07/31 13:13:55;;;;;;;79.05;25.00;;;28.60;78.20;;;;;;8264569;28;20139;-65
2021/07/31 13:17:55;;;;;;;79.20;24.60;;;28.00;79.50;;;;;;8276571;28;20137;-65
2021/07/31 13:21:56;;;;;;;81.78;25.05;;;27.10;83.40;;;;;;8263017;28;20029;-65
2021/07/31 13:25:57;;;;;;;80.28;23.98;;;27.60;83.40;;;;;;8279193;28;20450;-65
2021/07/31 13:29:57;;;;;;;85.78;25.25;;;27.60;79.40;;;;;;8279087;28;20022;-65
2021/07/31 13:34:00;;;;;;;58.58;17.92;;;29.50;75.90;;;;;;8295787;28;20026;-65
2021/07/31 13:38:01;;;;;;;9.95;9.25;;;32.50;66.40;;;;;;8279190;28;20022;-65
2021/07/31 13:42:02;;;;;;;13.43;7.00;;;34.50;62.60;;;;;;8280244;28;20049;-65
2021/07/31 13:46:06;;;;;;;39.80;12.25;;;33.10;59.70;;;;;;8263825;28;20450;-65
2021/07/31 13:50:08;;;;;;;87.28;25.88;;;30.60;65.30;;;;;;8265267;28;20493;-65
2021/07/31 13:54:09;;;;;;;82.70;24.80;;;29.40;71.00;;;;;;8295588;28;20057;-65
2021/07/31 13:58:09;;;;;;;83.38;24.73;;;29.00;72.20;;;;;;8277473;28;20062;-65
2021/07/31 14:02:12;;;;;;;81.15;24.88;;;30.80;65.60;;;;;;8295475;28;20058;-65
2021/07/31 14:06:12;;;;;;;80.80;25.45;;;31.50;67.00;;;;;;8282370;28;20037;-65
2021/07/31 14:10:14;;;;;;;84.68;25.70;;;30.90;66.80;;;;;;8292996;28;20102;-65
2021/07/31 14:14:14;;;;;;;84.43;25.20;;;30.20;66.70;;;;;;8282659;28;20022;-65
2021/07/31 14:18:15;;;;;;;84.88;24.83;;;30.90;66.30;;;;;;8276450;28;20037;-65
2021/07/31 14:22:15;;;;;;;88.18;24.63;;;31.30;62.10;;;;;;8280340;28;20068;-65
2021/07/31 14:26:16;;;;;;;21.67;8.10;;;31.50;62.20;;;;;;8287750;28;20030;-65
2021/07/31 14:30:17;;;;;;;6.68;5.70;;;32.30;59.70;;;;;;8283796;28;20475;-66
2021/07/31 14:34:17;;;;;;;4.80;4.20;;;33.70;62.00;;;;;;8296413;28;20033;-66
2021/07/31 14:38:18;;;;;;;36.95;10.85;;;33.20;58.40;;;;;;8281902;28;20125;-65
2021/07/31 14:42:18;;;;;;;21.17;7.65;;;32.30;60.60;;;;;;8275621;28;20022;-65
2021/07/31 14:46:19;;;;;;;92.70;26.05;;;31.70;62.20;;;;;;8277598;28;20805;-65
2021/07/31 14:50:20;;;;;;;86.55;26.08;;;30.50;63.90;;;;;;8268281;28;20484;-65
2021/07/31 14:54:20;;;;;;;81.10;24.88;;;29.00;69.50;;;;;;8276308;28;20046;-65
2021/07/31 14:58:21;;;;;;;74.00;23.92;;;28.20;71.40;;;;;;8283568;28;20033;-65
2021/07/31 15:02:21;;;;;;;74.00;24.35;;;27.70;72.80;;;;;;8289753;28;20143;-65
2021/07/31 15:06:22;;;;;;;69.50;23.55;;;27.10;76.40;;;;;;8269802;28;20081;-66
2021/07/31 15:10:22;;;;;;;68.30;23.42;;;26.80;79.30;;;;;;8282716;28;20034;-65
2021/07/31 15:14:23;;;;;;;72.53;23.65;;;26.30;81.70;;;;;;8267361;28;20630;-65
2021/07/31 15:18:23;;;;;;;84.13;24.58;;;27.50;82.80;;;;;;8274714;28;20161;-65
2021/07/31 15:22:24;;;;;;;79.15;24.70;;;29.10;80.10;;;;;;8285592;28;20026;-65
2021/07/31 15:26:25;;;;;;;80.07;24.73;;;29.00;81.00;;;;;;8255997;28;20117;-65
2021/07/31 15:30:25;;;;;;;76.38;24.65;;;28.30;80.80;;;;;;8253699;28;20156;-65
2021/07/31 15:34:26;;;;;;;76.40;24.35;;;27.50;78.70;;;;;;8275447;28;20045;-65
2021/07/31 15:38:28;;;;;;;76.05;24.30;;;27.20;80.80;;;;;;8274047;28;20132;-65
2021/07/31 15:42:29;;;;;;;75.85;24.20;;;26.80;80.50;;;;;;8274798;28;20491;-65
2021/07/31 15:46:30;;;;;;;73.57;24.10;;;26.40;83.70;;;;;;8263698;28;20040;-65
2021/07/31 15:50:31;;;;;;;73.95;23.77;;;25.90;84.30;;;;;;8274069;28;20030;-65
2021/07/31 15:54:31;;;;;;;76.03;24.48;;;25.90;90.10;;;;;;8280620;28;20408;-65
2021/07/31 15:58:32;;;;;;;74.00;23.75;;;26.20;87.90;;;;;;8278849;28;20124;-65
2021/07/31 16:02:33;;;;;;;74.32;24.05;;;26.10;86.90;;;;;;8279688;28;20026;-65
2021/07/31 16:06:33;;;;;;;73.90;23.77;;;26.00;89.50;;;;;;8270313;28;20500;-64
2021/07/31 16:10:34;;;;;;;74.35;24.10;;;26.00;90.80;;;;;;8274470;28;20022;-65
2021/07/31 16:14:34;;;;;;;74.30;24.10;;;26.00;90.20;;;;;;8275534;28;20091;-64
2021/07/31 16:18:35;;;;;;;72.00;23.85;;;25.50;89.50;;;;;;8270577;28;20027;-64
2021/07/31 16:22:38;;;;;;;67.72;23.05;;;25.10;90.50;;;;;;8260385;28;20421;-65
2021/07/31 16:26:38;;;;;;;61.53;21.77;;;24.90;92.60;;;;;;8279477;28;20033;-64
2021/07/31 16:30:39;;;;;;;61.97;22.35;;;24.80;95.30;;;;;;8281586;28;20400;-65
2021/07/31 16:34:40;;;;;;;59.90;21.92;;;24.90;90.90;;;;;;8290307;28;20042;-64
2021/07/31 16:38:40;;;;;;;56.38;21.63;;;24.40;96.30;;;;;;8268890;28;20034;-64
2021/07/31 16:42:41;;;;;;;58.95;21.95;;;24.30;97.20;;;;;;8292436;28;20104;-64
2021/07/31 16:46:41;;;;;;;60.88;22.25;;;24.20;96.40;;;;;;8292260;28;20030;-64
2021/07/31 16:50:42;;;;;;;62.65;22.58;;;23.80;94.50;;;;;;8289306;28;20050;-64
2021/07/31 16:54:43;;;;;;;64.07;22.17;;;23.40;95.60;;;;;;8252794;28;20026;-64
2021/07/31 16:58:44;;;;;;;66.03;22.88;;;23.40;96.90;;;;;;8280464;28;20037;-64
2021/07/31 17:02:45;;;;;;;65.50;22.83;;;23.00;96.40;;;;;;8283102;28;20037;-64
2021/07/31 17:06:45;;;;;;;64.28;22.77;;;22.90;97.70;;;;;;8259774;28;20034;-64
2021/07/31 17:10:46;;;;;;;63.42;21.88;;;23.20;97.40;;;;;;8281466;28;20048;-64
2021/07/31 17:14:47;;;;;;;66.07;23.25;;;23.30;97.40;;;;;;8280745;28;20115;-64
2021/07/31 17:18:47;;;;;;;61.60;22.35;;;23.30;99.90;;;;;;8275816;28;20778;-64
2021/07/31 17:22:52;;;;;;;61.78;21.75;;;23.50;99.50;;;;;;8289578;28;20033;-64
2021/07/31 17:26:52;;;;;;;61.83;22.05;;;23.30;99.20;;;;;;8271429;28;20072;-65
2021/07/31 17:30:53;;;;;;;62.40;22.25;;;23.10;99.60;;;;;;8281885;28;20385;-65
2021/07/31 17:34:53;;;;;;;63.40;22.85;;;23.00;99.90;;;;;;8277219;28;20423;-65
2021/07/31 17:38:54;;;;;;;63.92;23.13;;;22.70;99.20;;;;;;8279612;28;20036;-65
2021/07/31 17:42:55;;;;;;;62.92;22.23;;;22.60;99.90;;;;;;8276376;28;20029;-66
2021/07/31 17:46:55;;;;;;;62.50;22.80;;;22.30;99.90;;;;;;8278915;28;20061;-65
2021/07/31 17:50:56;;;;;;;61.08;21.95;;;22.40;99.90;;;;;;8282697;28;20137;-65
2021/07/31 17:54:57;;;;;;;62.03;22.50;;;22.50;99.90;;;;;;8277249;28;20026;-65
2021/07/31 17:58:57;;;;;;;59.70;21.85;;;22.60;99.90;;;;;;8262900;28;20417;-65
2021/07/31 18:02:58;;;;;;;61.50;22.35;;;22.50;99.90;;;;;;8277819;28;20037;-66
2021/07/31 18:06:58;;;;;;;61.72;22.35;;;22.50;99.90;;;;;;8258186;28;20045;-65
2021/07/31 18:10:59;;;;;;;59.45;22.13;;;22.50;99.90;;;;;;8254196;28;20025;-65
2021/07/31 18:15:00;;;;;;;61.17;21.77;;;22.50;99.90;;;;;;8278217;28;20476;-65
2021/07/31 18:19:00;;;;;;;61.83;22.50;;;22.10;99.90;;;;;;8262092;28;20030;-66
2021/07/31 18:23:01;;;;;;;57.83;21.20;;;21.70;99.90;;;;;;8293604;28;20072;-65
2021/07/31 18:27:02;;;;;;;57.58;21.25;;;21.70;99.90;;;;;;8259514;28;20045;-65
2021/07/31 18:31:06;;;;;;;58.20;21.85;;;21.70;99.90;;;;;;8259832;28;20030;-65
2021/07/31 18:35:07;;;;;;;58.95;21.75;;;21.70;99.90;;;;;;8283107;28;20105;-65
2021/07/31 18:39:08;;;;;;;58.65;21.70;;;21.60;99.90;;;;;;8277308;28;20096;-66
2021/07/31 18:43:08;;;;;;;60.67;22.17;;;21.70;99.90;;;;;;8276159;28;20446;-66
2021/07/31 18:47:09;;;;;;;56.03;21.02;;;21.50;99.90;;;;;;8277270;28;20030;-65
2021/07/31 18:51:09;;;;;;;56.70;21.30;;;21.50;99.90;;;;;;8274668;28;20045;-65
2021/07/31 18:55:11;;;;;;;57.40;21.35;;;21.30;99.90;;;;;;8275976;28;20134;-65
2021/07/31 18:59:11;;;;;;;56.80;21.88;;;21.20;99.90;;;;;;8276113;28;20034;-65
2021/07/31 19:03:12;;;;;;;56.80;21.58;;;21.00;99.90;;;;;;8292882;28;20611;-65
2021/07/31 19:07:13;;;;;;;55.42;21.48;;;21.00;99.90;;;;;;8287910;28;20033;-65
2021/07/31 19:11:14;;;;;;;56.08;21.50;;;21.00;99.90;;;;;;8260574;28;20121;-65
2021/07/31 19:15:14;;;;;;;57.20;21.67;;;20.50;99.90;;;;;;8260806;28;20023;-65
2021/07/31 19:19:15;;;;;;;58.00;22.02;;;20.20;99.90;;;;;;8243121;28;20034;-65
2021/07/31 19:23:15;;;;;;;58.15;21.58;;;20.20;99.90;;;;;;8270151;28;20454;-65
2021/07/31 19:27:16;;;;;;;58.90;21.52;;;20.20;99.90;;;;;;8261031;28;20084;-65
2021/07/31 19:31:16;;;;;;;60.05;22.10;;;19.90;99.90;;;;;;8276059;28;20524;-65
2021/07/31 19:35:17;;;;;;;59.17;21.88;;;19.80;99.90;;;;;;8275572;28;20034;-65
2021/07/31 19:39:18;;;;;;;58.85;22.02;;;19.60;99.90;;;;;;8258256;28;20117;-65
2021/07/31 19:43:18;;;;;;;57.47;21.88;;;19.50;99.90;;;;;;8255164;28;20400;-65
2021/07/31 19:47:19;;;;;;;56.05;21.38;;;19.40;99.90;;;;;;8275543;28;20026;-65
2021/07/31 19:51:19;;;;;;;55.47;21.10;;;19.80;99.90;;;;;;8281636;28;20034;-65
2021/07/31 19:55:20;;;;;;;55.97;21.33;;;19.70;99.90;;;;;;8281572;28;20041;-65
2021/07/31 19:59:20;;;;;;;54.63;21.00;;;19.70;99.90;;;;;;8281260;28;20037;-65
2021/07/31 20:03:21;;;;;;;54.92;21.15;;;19.60;99.90;;;;;;8281490;28;20077;-65
2021/07/31 20:07:22;;;;;;;54.95;21.02;;;19.50;99.90;;;;;;8287026;28;20034;-65
2021/07/31 20:11:22;;;;;;;55.95;21.35;;;19.40;99.90;;;;;;8288021;28;20038;-65
2021/07/31 20:15:23;;;;;;;56.25;21.85;;;19.30;99.90;;;;;;8265836;28;20668;-65
2021/07/31 20:19:23;;;;;;;56.05;21.75;;;19.20;99.90;;;;;;8279202;28;20037;-65
2021/07/31 20:23:24;;;;;;;54.92;21.05;;;19.30;99.90;;;;;;8294639;28;20038;-65
2021/07/31 20:27:24;;;;;;;54.97;21.40;;;19.10;99.90;;;;;;8288609;28;20034;-65